createdAt,value
2022-09-15T00:02:24.521Z,17.13
2022-09-15T00:04:51.139Z,16.02
2022-09-15T00:07:17.651Z,15.05
2022-09-15T00:09:44.121Z,17.92
2022-09-15T00:12:10.599Z,18.02
2022-09-15T00:14:37.055Z,17.58
2022-09-15T00:17:03.685Z,17.67
2022-09-15T00:19:30.213Z,17.27
2022-09-15T00:21:56.678Z,16.00
2022-09-15T00:24:23.172Z,15.38
2022-09-15T00:26:49.636Z,16.13
2022-09-15T00:29:16.112Z,16.20
2022-09-15T00:31:42.620Z,19.83
2022-09-15T00:34:12.137Z,17.85
2022-09-15T00:36:38.662Z,16.08
2022-09-15T00:39:05.514Z,18.13
2022-09-15T00:41:31.981Z,17.17
2022-09-15T00:44:00.104Z,19.00
2022-09-15T00:46:39.594Z,15.70
2022-09-15T00:49:33.164Z,18.27
2022-09-15T00:52:07.321Z,18.23
2022-09-15T00:54:45.553Z,16.70
2022-09-15T00:57:19.667Z,16.17
2022-09-15T00:59:47.950Z,18.38
2022-09-15T01:02:29.029Z,19.30
2022-09-15T01:04:58.740Z,18.23
2022-09-15T01:07:46.177Z,18.25
2022-09-15T01:10:36.027Z,18.23
2022-09-15T01:13:05.789Z,16.48
2022-09-15T01:15:59.618Z,19.00
2022-09-15T01:18:58.077Z,19.05
2022-09-15T01:21:36.673Z,16.27
2022-09-15T01:24:24.756Z,17.30
2022-09-15T01:26:56.213Z,18.10
2022-09-15T01:29:49.533Z,18.15
2022-09-15T01:32:57.944Z,18.92
2022-09-15T01:35:35.503Z,17.60
2022-09-15T01:38:07.648Z,18.48
2022-09-15T01:40:45.301Z,18.85
2022-09-15T01:43:12.904Z,17.60
2022-09-15T01:45:42.849Z,17.15
2022-09-15T01:48:10.926Z,16.42
2022-09-15T01:50:46.261Z,19.00
2022-09-15T01:53:18.056Z,17.55
2022-09-15T01:55:57.690Z,17.42
2022-09-15T01:58:24.303Z,18.40
2022-09-15T02:01:15.457Z,18.33
2022-09-15T02:03:50.207Z,15.82
2022-09-15T02:06:24.599Z,17.15
2022-09-15T02:09:02.907Z,18.95
2022-09-15T02:11:30.389Z,16.42
2022-09-15T02:13:56.831Z,18.55
2022-09-15T02:16:25.836Z,15.85
2022-09-15T02:19:11.991Z,16.42
2022-09-15T02:22:14.428Z,18.25
2022-09-15T02:24:45.984Z,14.52
2022-09-15T02:27:18.707Z,14.50
2022-09-15T02:29:48.580Z,15.30
2022-09-15T02:32:18.441Z,15.20
2022-09-15T02:34:48.857Z,14.90
2022-09-15T02:37:15.962Z,15.65
2022-09-15T02:39:47.896Z,13.55
2022-09-15T02:42:24.448Z,14.35
2022-09-15T02:44:51.153Z,16.27
2022-09-15T02:47:17.835Z,18.25
2022-09-15T02:49:44.360Z,14.10
2022-09-15T02:52:10.864Z,16.90
2022-09-15T02:54:37.900Z,17.38
2022-09-15T02:57:05.003Z,13.25
2022-09-15T02:59:51.576Z,13.60
2022-09-15T03:02:20.463Z,16.48
2022-09-15T03:04:48.255Z,17.83
2022-09-15T03:07:15.723Z,15.25
2022-09-15T03:09:42.256Z,13.40
2022-09-15T03:12:09.234Z,14.88
2022-09-15T03:14:36.120Z,14.93
2022-09-15T03:17:03.432Z,17.15
2022-09-15T03:19:30.924Z,17.50
2022-09-15T03:21:57.618Z,18.83
2022-09-15T03:24:24.089Z,20.27
2022-09-15T03:26:50.577Z,16.88
2022-09-15T03:29:17.051Z,18.02
2022-09-15T03:31:43.633Z,16.55
2022-09-15T03:34:10.114Z,17.90
2022-09-15T03:36:36.651Z,18.13
2022-09-15T03:39:03.178Z,16.45
2022-09-15T03:41:29.902Z,17.05
2022-09-15T03:43:56.597Z,17.67
2022-09-15T03:46:23.164Z,17.90
2022-09-15T03:48:49.629Z,19.60
2022-09-15T03:51:16.149Z,17.60
2022-09-15T03:53:42.968Z,23.42
2022-09-15T03:56:23.532Z,17.80
2022-09-15T03:58:51.303Z,19.77
2022-09-15T04:01:18.960Z,17.60
2022-09-15T04:03:50.896Z,20.92
2022-09-15T04:06:19.759Z,18.48
2022-09-15T04:08:46.386Z,19.90
2022-09-15T04:11:13.601Z,17.70
2022-09-15T04:13:41.822Z,17.95
2022-09-15T04:16:11.466Z,19.83
2022-09-15T04:18:38.251Z,17.42
2022-09-15T04:21:11.561Z,18.92
2022-09-15T04:23:38.035Z,18.35
2022-09-15T04:26:07.349Z,19.90
2022-09-15T04:28:36.399Z,18.10
2022-09-15T04:31:08.138Z,18.77
2022-09-15T04:36:04.016Z,18.33
2022-09-15T04:38:31.432Z,19.60
2022-09-15T04:40:58.793Z,18.15
2022-09-15T04:43:27.024Z,18.65
2022-09-15T04:45:54.188Z,16.95
2022-09-15T04:48:21.951Z,18.05
2022-09-15T04:50:48.459Z,17.63
2022-09-15T04:53:15.468Z,18.88
2022-09-15T04:55:42.281Z,17.63
2022-09-15T04:58:09.090Z,19.10
2022-09-15T05:00:45.950Z,18.40
2022-09-15T05:03:13.955Z,18.10
2022-09-15T05:05:41.339Z,18.73
2022-09-15T05:08:08.137Z,19.05
2022-09-15T05:10:34.976Z,17.77
2022-09-15T05:13:01.473Z,16.27
2022-09-15T05:15:27.949Z,17.55
2022-09-15T05:17:54.457Z,18.02
2022-09-15T05:20:20.990Z,15.40
2022-09-15T05:22:47.455Z,16.10
2022-09-15T05:25:13.993Z,15.30
2022-09-15T05:27:40.509Z,15.98
2022-09-15T05:30:35.003Z,16.58
2022-09-15T05:32:54.211Z,16.88
2022-09-15T05:35:20.697Z,17.15
2022-09-15T05:37:47.237Z,19.20
2022-09-15T05:40:13.793Z,19.30
2022-09-15T05:42:40.551Z,18.40
2022-09-15T05:45:07.584Z,16.73
2022-09-15T05:47:34.084Z,17.13
2022-09-15T05:50:00.546Z,16.67
2022-09-15T05:52:27.029Z,17.23
2022-09-15T05:54:58.296Z,17.08
2022-09-15T05:57:25.563Z,18.27
2022-09-15T05:59:52.053Z,18.10
2022-09-15T06:02:18.598Z,17.33
2022-09-15T06:04:45.119Z,19.52
2022-09-15T06:07:11.590Z,19.15
2022-09-15T06:09:38.071Z,17.95
2022-09-15T06:12:04.863Z,19.15
2022-09-15T06:14:31.411Z,17.52
2022-09-15T06:16:57.902Z,17.40
2022-09-15T06:19:24.370Z,17.98
2022-09-15T06:21:51.035Z,18.52
2022-09-15T06:24:17.506Z,19.02
2022-09-15T06:26:44.088Z,17.85
2022-09-15T06:29:13.767Z,16.92
2022-09-15T06:31:40.590Z,17.60
2022-09-15T06:34:08.561Z,16.33
2022-09-15T06:36:37.502Z,18.45
2022-09-15T06:39:04.261Z,17.27
2022-09-15T06:41:52.592Z,18.63
2022-09-15T06:44:21.138Z,17.48
2022-09-15T06:46:48.737Z,18.02
2022-09-15T06:49:16.449Z,15.95
2022-09-15T06:51:43.009Z,16.73
2022-09-15T06:54:09.488Z,15.40
2022-09-15T06:56:38.281Z,15.68
2022-09-15T06:59:05.374Z,15.43
2022-09-15T07:01:32.510Z,16.17
2022-09-15T07:04:01.070Z,15.02
2022-09-15T07:06:29.980Z,15.18
2022-09-15T07:08:57.089Z,16.25
2022-09-15T07:11:23.872Z,13.18
2022-09-15T07:13:50.786Z,14.95
2022-09-15T07:16:18.969Z,13.57
2022-09-15T07:18:47.244Z,14.30
2022-09-15T07:21:16.232Z,16.30
2022-09-15T07:23:43.356Z,13.30
2022-09-15T07:26:16.019Z,12.30
2022-09-15T07:28:44.314Z,14.60
2022-09-15T07:31:13.511Z,14.45
2022-09-15T07:33:40.057Z,14.65
2022-09-15T07:36:08.376Z,15.07
2022-09-15T07:38:38.461Z,16.10
2022-09-15T07:41:06.640Z,15.90
2022-09-15T07:43:33.337Z,14.32
2022-09-15T07:46:00.976Z,13.10
2022-09-15T07:48:27.930Z,14.68
2022-09-15T07:50:54.524Z,16.90
2022-09-15T07:53:21.376Z,13.52
2022-09-15T07:55:54.465Z,16.63
2022-09-15T07:58:21.588Z,14.40
2022-09-15T08:00:48.806Z,12.95
2022-09-15T08:03:16.212Z,14.07
2022-09-15T08:05:45.645Z,13.88
2022-09-15T08:08:12.931Z,13.25
2022-09-15T08:10:41.032Z,13.27
2022-09-15T08:13:07.611Z,15.55
2022-09-15T08:15:37.299Z,12.48
2022-09-15T08:18:04.292Z,12.70
2022-09-15T08:20:31.679Z,12.38
2022-09-15T08:22:58.161Z,12.43
2022-09-15T08:25:24.797Z,12.05
2022-09-15T08:27:53.858Z,12.13
2022-09-15T08:30:21.204Z,16.20
2022-09-15T08:32:47.889Z,12.55
2022-09-15T08:35:15.870Z,13.25
2022-09-15T08:37:42.352Z,14.60
2022-09-15T08:40:17.677Z,14.05
2022-09-15T08:42:46.932Z,11.85
2022-09-15T08:45:24.641Z,14.45
2022-09-15T08:47:56.074Z,12.95
2022-09-15T08:50:28.048Z,14.50
2022-09-15T08:53:06.729Z,15.90
2022-09-15T08:55:33.273Z,15.85
2022-09-15T08:57:59.890Z,15.25
2022-09-15T09:00:26.906Z,13.60
2022-09-15T09:03:09.363Z,14.18
2022-09-15T09:05:52.530Z,10.43
2022-09-15T09:08:53.009Z,11.35
2022-09-15T09:11:50.439Z,13.50
2022-09-15T09:14:48.005Z,12.88
2022-09-15T09:17:30.961Z,11.00
2022-09-15T09:20:10.861Z,11.93
2022-09-15T09:22:41.316Z,9.60
2022-09-15T09:25:26.508Z,12.18
2022-09-15T09:27:54.190Z,11.50
2022-09-15T09:30:23.279Z,9.10
2022-09-15T09:33:14.084Z,11.82
2022-09-15T09:35:46.898Z,11.05
2022-09-15T09:38:20.761Z,10.32
2022-09-15T09:40:48.708Z,11.80
2022-09-15T09:43:15.498Z,11.10
2022-09-15T09:45:41.949Z,9.80
2022-09-15T09:48:24.210Z,9.32
2022-09-15T09:50:51.110Z,11.63
2022-09-15T09:53:26.605Z,7.85
2022-09-15T09:55:55.192Z,8.27
2022-09-15T09:58:24.649Z,7.78
2022-09-15T10:00:52.742Z,9.35
2022-09-15T10:03:20.629Z,10.68
2022-09-15T10:06:06.340Z,9.30
2022-09-15T10:08:35.077Z,8.88
2022-09-15T10:11:06.559Z,9.07
2022-09-15T10:13:35.450Z,12.93
2022-09-15T10:16:05.456Z,11.05
2022-09-15T10:18:35.301Z,9.10
2022-09-15T10:21:04.503Z,8.18
2022-09-15T10:23:32.777Z,9.93
2022-09-15T10:26:20.109Z,13.68
2022-09-15T10:29:11.554Z,11.40
2022-09-15T10:31:38.532Z,10.30
2022-09-15T10:34:24.760Z,9.73
2022-09-15T10:36:54.958Z,11.10
2022-09-15T10:39:31.359Z,5.53
2022-09-15T10:42:53.245Z,7.13
2022-09-15T10:45:26.108Z,4.53
2022-09-15T10:48:22.163Z,5.65
2022-09-15T10:51:27.484Z,3.88
2022-09-15T10:54:14.618Z,5.07
2022-09-15T10:56:45.136Z,5.72
2022-09-15T10:59:33.944Z,4.90
2022-09-15T11:02:23.297Z,3.10
2022-09-15T11:05:10.544Z,3.83
2022-09-15T11:07:48.472Z,5.25
2022-09-15T11:10:29.606Z,3.78
2022-09-15T11:12:58.739Z,4.15
2022-09-15T11:16:03.376Z,3.78
2022-09-15T11:19:16.557Z,6.10
2022-09-15T11:21:49.835Z,4.47
2022-09-15T11:24:17.258Z,4.97
2022-09-15T11:26:52.939Z,5.57
2022-09-15T11:29:31.613Z,6.05
2022-09-15T11:32:09.431Z,2.95
2022-09-15T11:34:45.626Z,6.00
2022-09-15T11:37:25.310Z,5.28
2022-09-15T11:40:07.701Z,6.93
2022-09-15T11:42:40.569Z,7.20
2022-09-15T11:45:37.101Z,3.17
2022-09-15T11:48:13.299Z,6.85
2022-09-15T11:50:43.718Z,4.05
2022-09-15T11:53:35.411Z,4.38
2022-09-15T11:56:32.827Z,4.57
2022-09-15T11:59:14.714Z,5.22
2022-09-15T12:01:50.987Z,6.63
2022-09-15T12:04:29.118Z,5.00
2022-09-15T12:07:02.953Z,6.75
2022-09-15T12:09:29.456Z,5.28
2022-09-15T12:12:06.784Z,9.15
2022-09-15T12:14:37.097Z,6.03
2022-09-15T12:17:06.246Z,5.97
2022-09-15T12:19:33.421Z,5.68
2022-09-15T12:22:11.412Z,4.07
2022-09-15T12:24:53.040Z,4.03
2022-09-15T12:27:20.609Z,6.47
2022-09-15T12:29:55.166Z,6.78
2022-09-15T12:32:31.959Z,6.28
2022-09-15T12:35:11.378Z,5.88
2022-09-15T12:37:45.813Z,5.15
2022-09-15T12:40:30.353Z,3.88
2022-09-15T12:42:57.515Z,3.92
2022-09-15T12:45:27.270Z,4.88
2022-09-15T12:48:06.967Z,5.03
2022-09-15T12:50:40.391Z,4.20
2022-09-15T12:53:45.739Z,4.30
2022-09-15T12:56:26.509Z,7.30
2022-09-15T12:58:54.110Z,4.30
2022-09-15T13:01:24.351Z,4.10
2022-09-15T13:03:50.900Z,4.20
2022-09-15T13:06:29.197Z,3.97
2022-09-15T13:09:01.477Z,3.83
2022-09-15T13:11:37.465Z,3.97
2022-09-15T13:14:04.222Z,4.28
2022-09-15T13:16:40.084Z,4.70
2022-09-15T13:19:28.396Z,4.20
2022-09-15T13:22:27.476Z,4.35
2022-09-15T13:24:59.198Z,4.35
2022-09-15T13:27:36.275Z,4.40
2022-09-15T13:30:24.175Z,4.20
2022-09-15T13:33:00.683Z,5.10
2022-09-15T13:35:52.701Z,5.07
2022-09-15T13:38:44.304Z,4.20
2022-09-15T13:41:31.017Z,4.15
2022-09-15T13:43:57.775Z,4.47
2022-09-15T13:46:39.055Z,4.85
2022-09-15T13:49:47.012Z,4.57
2022-09-15T13:52:22.059Z,4.95
2022-09-15T13:55:28.779Z,4.40
2022-09-15T14:00:56.260Z,4.55
2022-09-15T14:03:36.852Z,4.85
2022-09-15T14:06:12.153Z,4.30
2022-09-15T14:08:41.564Z,5.70
2022-09-15T14:11:13.345Z,5.25
2022-09-15T14:13:46.020Z,4.45
2022-09-15T14:16:29.141Z,5.18
2022-09-15T14:18:58.350Z,4.53
2022-09-15T14:21:27.347Z,4.50
2022-09-15T14:23:56.199Z,4.55
2022-09-15T14:26:26.778Z,4.95
2022-09-15T14:28:57.837Z,5.07
2022-09-15T14:31:33.396Z,4.60
2022-09-15T14:34:01.606Z,5.97
2022-09-15T14:36:33.120Z,4.13
2022-09-15T14:39:25.564Z,4.20
2022-09-15T14:41:52.082Z,4.35
2022-09-15T14:47:19.951Z,4.80
2022-09-15T14:49:46.901Z,4.95
2022-09-15T14:52:24.855Z,4.65
2022-09-15T14:54:59.218Z,6.50
2022-09-15T14:57:31.286Z,6.70
2022-09-15T15:00:04.198Z,4.88
2022-09-15T15:02:37.530Z,4.65
2022-09-15T15:05:34.657Z,4.20
2022-09-15T15:08:05.799Z,4.05
2022-09-15T15:10:35.849Z,4.07
2022-09-15T15:13:08.774Z,4.88
2022-09-15T15:15:37.794Z,4.40
2022-09-15T15:18:06.484Z,4.30
2022-09-15T15:20:33.026Z,5.18
2022-09-15T15:23:20.167Z,4.63
2022-09-15T15:25:49.517Z,4.43
2022-09-15T15:28:35.773Z,3.90
2022-09-15T15:31:21.663Z,4.05
2022-09-15T15:34:04.941Z,4.80
2022-09-15T15:36:34.146Z,6.10
2022-09-15T15:39:04.812Z,5.18
2022-09-15T15:41:35.801Z,4.72
2022-09-15T15:44:07.944Z,4.10
2022-09-15T15:46:54.330Z,4.10
2022-09-15T15:49:25.761Z,3.92
2022-09-15T15:51:54.789Z,8.48
2022-09-15T15:54:22.519Z,4.45
2022-09-15T15:56:49.329Z,4.57
2022-09-15T15:59:16.515Z,4.20
2022-09-15T16:01:43.495Z,5.05
2022-09-15T16:04:12.034Z,4.40
2022-09-15T16:06:39.140Z,4.85
2022-09-15T16:09:05.884Z,4.38
2022-09-15T16:11:32.509Z,4.70
2022-09-15T16:13:59.140Z,4.50
2022-09-15T16:16:27.064Z,4.75
2022-09-15T16:18:53.882Z,4.60
2022-09-15T16:21:26.308Z,5.28
2022-09-15T16:23:52.904Z,6.55
2022-09-15T16:26:23.611Z,5.88
2022-09-15T16:28:51.118Z,4.70
2022-09-15T16:31:17.618Z,4.53
2022-09-15T16:33:44.328Z,4.70
2022-09-15T16:36:16.148Z,4.70
2022-09-15T16:38:44.309Z,4.35
2022-09-15T16:41:16.334Z,4.43
2022-09-15T16:43:44.213Z,5.13
2022-09-15T16:46:11.542Z,4.88
2022-09-15T16:48:39.047Z,5.78
2022-09-15T16:51:24.761Z,5.13
2022-09-15T16:53:55.079Z,5.10
2022-09-15T16:56:21.526Z,4.90
2022-09-15T16:58:47.984Z,5.05
2022-09-15T17:01:20.461Z,5.25
2022-09-15T17:03:47.777Z,4.30
2022-09-15T17:06:17.540Z,5.22
2022-09-15T17:08:44.896Z,4.70
2022-09-15T17:11:16.468Z,5.93
2022-09-15T17:13:44.428Z,4.88
2022-09-15T17:16:13.134Z,4.50
2022-09-15T17:18:39.615Z,5.22
2022-09-15T17:21:06.327Z,4.85
2022-09-15T17:23:38.159Z,5.53
2022-09-15T17:26:10.454Z,5.18
2022-09-15T17:28:37.531Z,5.30
2022-09-15T17:31:07.081Z,5.35
2022-09-15T17:33:33.627Z,5.53
2022-09-15T17:36:00.329Z,4.85
2022-09-15T17:38:27.104Z,5.28
2022-09-15T17:40:57.223Z,4.60
2022-09-15T17:43:26.475Z,4.93
2022-09-15T17:45:53.764Z,4.97
2022-09-15T17:48:21.203Z,5.13
2022-09-15T17:50:48.636Z,4.85
2022-09-15T17:53:28.226Z,5.15
2022-09-15T17:55:55.675Z,3.70
2022-09-15T17:58:23.751Z,4.97
2022-09-15T18:00:51.299Z,5.30
2022-09-15T18:03:22.464Z,7.93
2022-09-15T18:05:49.876Z,5.50
2022-09-15T18:08:16.868Z,4.05
2022-09-15T18:10:44.012Z,7.13
2022-09-15T18:13:16.335Z,4.85
2022-09-15T18:15:43.490Z,4.72
2022-09-15T18:18:15.595Z,4.68
2022-09-15T18:20:42.333Z,5.07
2022-09-15T18:23:16.620Z,4.43
2022-09-15T18:25:44.093Z,4.43
2022-09-15T18:28:10.988Z,5.38
2022-09-15T18:30:42.903Z,6.25
2022-09-15T18:33:20.149Z,4.25
2022-09-15T18:35:48.164Z,4.63
2022-09-15T18:38:14.986Z,5.32
2022-09-15T18:40:50.161Z,4.25
2022-09-15T18:43:17.133Z,5.40
2022-09-15T18:45:44.182Z,5.60
2022-09-15T18:48:13.039Z,4.97
2022-09-15T18:50:40.999Z,5.50
2022-09-15T18:53:07.776Z,5.22
2022-09-15T18:55:34.594Z,7.57
2022-09-15T18:58:01.766Z,5.53
2022-09-15T19:00:28.778Z,6.95
2022-09-15T19:03:00.469Z,4.85
2022-09-15T19:07:54.006Z,5.57
2022-09-15T19:10:20.596Z,4.38
2022-09-15T19:12:47.190Z,4.28
2022-09-15T19:15:14.668Z,4.80
2022-09-15T19:17:42.480Z,4.93
2022-09-15T19:20:11.604Z,6.90
2022-09-15T19:22:38.138Z,5.70
2022-09-15T19:25:06.660Z,5.10
2022-09-15T19:27:33.641Z,4.65
2022-09-15T19:30:00.670Z,6.05
2022-09-15T19:32:27.152Z,7.57
2022-09-15T19:34:53.752Z,4.43
2022-09-15T19:37:21.624Z,4.55
2022-09-15T19:39:48.372Z,4.90
2022-09-15T19:44:47.720Z,5.70
2022-09-15T19:47:14.172Z,4.70
2022-09-15T19:49:40.662Z,5.65
2022-09-15T19:52:07.325Z,5.40
2022-09-15T19:54:34.607Z,5.88
2022-09-15T19:57:01.869Z,5.30
2022-09-15T19:59:31.285Z,5.15
2022-09-15T20:01:59.477Z,5.38
2022-09-15T20:04:26.445Z,4.70
2022-09-15T20:06:52.929Z,5.60
2022-09-15T20:09:19.418Z,5.88
2022-09-15T20:11:46.020Z,4.75
2022-09-15T20:14:13.156Z,4.93
2022-09-15T20:16:39.662Z,5.50
2022-09-15T20:19:06.439Z,5.22
2022-09-15T20:21:51.607Z,4.68
2022-09-15T20:24:19.638Z,5.30
2022-09-15T20:26:46.199Z,6.18
2022-09-15T20:29:13.134Z,5.70
2022-09-15T20:31:40.369Z,4.50
2022-09-15T20:34:06.899Z,5.47
2022-09-15T20:36:36.007Z,5.97
2022-09-15T20:39:04.480Z,5.63
2022-09-15T20:41:34.597Z,5.22
2022-09-15T20:44:01.233Z,7.72
2022-09-15T20:46:31.320Z,5.97
2022-09-15T20:48:57.807Z,6.20
2022-09-15T20:51:31.518Z,6.82
2022-09-15T20:53:59.307Z,7.22
2022-09-15T20:56:28.089Z,6.70
2022-09-15T20:58:56.670Z,5.65
2022-09-15T21:01:26.505Z,5.38
2022-09-15T21:03:55.162Z,4.85
2022-09-15T21:06:23.974Z,4.97
2022-09-15T21:08:50.622Z,5.43
2022-09-15T21:11:19.318Z,4.63
2022-09-15T21:13:47.064Z,4.57
2022-09-15T21:16:16.339Z,6.57
2022-09-15T21:18:44.720Z,3.53
2022-09-15T21:21:16.593Z,4.35
2022-09-15T21:23:47.905Z,6.07
2022-09-15T21:26:25.995Z,5.30
2022-09-15T21:28:54.173Z,6.28
2022-09-15T21:31:23.803Z,4.25
2022-09-15T21:33:52.198Z,5.28
2022-09-15T21:36:23.821Z,5.90
2022-09-15T21:38:52.357Z,3.95
2022-09-15T21:41:21.921Z,4.00
2022-09-15T21:43:49.765Z,4.80
2022-09-15T21:46:19.878Z,6.72
2022-09-15T21:48:47.567Z,4.40
2022-09-15T21:51:23.972Z,4.38
2022-09-15T21:53:53.266Z,6.13
2022-09-15T21:56:20.262Z,6.78
2022-09-15T21:58:46.855Z,3.67
2022-09-15T22:01:19.496Z,6.05
2022-09-15T22:03:51.525Z,7.10
2022-09-15T22:06:20.086Z,4.45
2022-09-15T22:08:47.010Z,4.75
2022-09-15T22:11:14.412Z,4.65
2022-09-15T22:13:43.533Z,5.53
2022-09-15T22:16:21.520Z,4.85
2022-09-15T22:18:49.103Z,5.07
2022-09-15T22:21:21.085Z,4.63
2022-09-15T22:23:49.013Z,5.32
2022-09-15T22:26:35.795Z,4.85
2022-09-15T22:29:03.013Z,5.75
2022-09-15T22:31:29.776Z,5.22
2022-09-15T22:33:56.750Z,4.68
2022-09-15T22:36:30.182Z,5.05
2022-09-15T22:39:03.690Z,5.05
2022-09-15T22:41:32.010Z,4.47
2022-09-15T22:43:58.836Z,4.93
2022-09-15T22:46:25.533Z,4.07
2022-09-15T22:48:52.006Z,4.75
2022-09-15T22:51:18.765Z,3.47
2022-09-15T22:53:45.285Z,4.47
2022-09-15T22:56:19.780Z,5.57
2022-09-15T22:58:48.075Z,3.90
2022-09-15T23:01:20.384Z,3.65
2022-09-15T23:03:58.443Z,4.93
2022-09-15T23:06:27.667Z,6.32
2022-09-15T23:08:56.510Z,3.58
2022-09-15T23:11:23.561Z,5.30
2022-09-15T23:13:50.282Z,5.65
2022-09-15T23:16:17.173Z,4.20
2022-09-15T23:18:44.141Z,3.72
2022-09-15T23:21:12.338Z,6.55
2022-09-15T23:23:41.077Z,6.53
2022-09-15T23:26:10.181Z,4.20
2022-09-15T23:28:38.919Z,5.78
2022-09-15T23:31:06.319Z,4.75
2022-09-15T23:33:32.976Z,3.70
2022-09-15T23:36:00.795Z,5.30
2022-09-15T23:38:27.738Z,5.03
2022-09-15T23:40:54.229Z,4.38
2022-09-15T23:43:20.730Z,4.00
2022-09-15T23:45:47.267Z,5.25
2022-09-15T23:48:14.101Z,5.82
2022-09-15T23:50:41.579Z,6.88
2022-09-15T23:53:08.965Z,5.03
2022-09-15T23:55:36.241Z,5.25
2022-09-15T23:58:03.967Z,4.60
